createdAt,value
2019-01-09T00:01:26.953Z,59.84
2019-01-09T00:03:53.884Z,59.91
2019-01-09T00:06:20.504Z,59.51
2019-01-09T00:08:51.380Z,58.91
2019-01-09T00:11:17.973Z,59.28
2019-01-09T00:13:46.224Z,58.86
2019-01-09T00:16:18.902Z,59.21
2019-01-09T00:18:45.509Z,59.31
2019-01-09T00:21:14.070Z,59.50
2019-01-09T00:23:40.706Z,59.74
2019-01-09T00:26:07.850Z,59.39
2019-01-09T00:28:35.114Z,59.17
2019-01-09T00:31:01.770Z,59.65
2019-01-09T00:33:28.718Z,59.57
2019-01-09T00:35:56.723Z,59.13
2019-01-09T00:38:23.307Z,57.93
2019-01-09T00:40:51.133Z,58.49
2019-01-09T00:43:17.897Z,58.90
2019-01-09T00:45:44.910Z,58.69
2019-01-09T00:48:11.524Z,59.04
2019-01-09T00:50:38.145Z,59.04
2019-01-09T00:53:04.842Z,58.92
2019-01-09T00:55:31.777Z,58.13
2019-01-09T00:57:58.698Z,58.43
2019-01-09T01:00:25.326Z,58.78
2019-01-09T01:02:54.158Z,59.34
2019-01-09T01:05:20.782Z,59.20
2019-01-09T01:07:47.492Z,59.30
2019-01-09T01:10:14.667Z,59.25
2019-01-09T01:12:41.621Z,59.74
2019-01-09T01:15:08.570Z,59.63
2019-01-09T01:17:37.351Z,59.04
2019-01-09T01:20:04.004Z,58.95
2019-01-09T01:22:30.677Z,59.24
2019-01-09T01:24:57.337Z,58.37
2019-01-09T01:27:24.011Z,59.10
2019-01-09T01:29:50.776Z,59.37
2019-01-09T01:32:22.877Z,59.69
2019-01-09T01:34:49.840Z,59.39
2019-01-09T01:37:17.182Z,59.07
2019-01-09T01:39:43.805Z,59.13
2019-01-09T01:42:11.709Z,59.50
2019-01-09T01:44:41.560Z,59.43
2019-01-09T01:47:08.245Z,59.06
2019-01-09T01:49:34.989Z,58.74
2019-01-09T01:52:03.631Z,59.10
2019-01-09T01:54:30.276Z,59.28
2019-01-09T01:56:56.904Z,59.21
2019-01-09T01:59:24.251Z,59.14
2019-01-09T02:01:51.535Z,59.02
2019-01-09T02:04:18.748Z,59.38
2019-01-09T02:06:45.367Z,59.84
2019-01-09T02:09:12.305Z,60.54
2019-01-09T02:11:39.280Z,60.75
2019-01-09T02:14:06.164Z,61.24
2019-01-09T02:16:33.074Z,61.36
2019-01-09T02:18:59.712Z,61.59
2019-01-09T02:21:26.376Z,61.72
2019-01-09T02:23:53.245Z,61.31
2019-01-09T02:26:20.175Z,61.00
2019-01-09T02:28:46.778Z,60.92
2019-01-09T02:31:13.478Z,60.34
2019-01-09T02:33:41.989Z,60.40
2019-01-09T02:36:13.760Z,60.32
2019-01-09T02:38:37.689Z,60.02
2019-01-09T02:41:04.443Z,59.23
2019-01-09T02:43:31.371Z,59.14
2019-01-09T02:45:57.966Z,59.40
2019-01-09T02:48:24.939Z,59.90
2019-01-09T02:50:54.321Z,59.85
2019-01-09T02:53:20.915Z,59.66
2019-01-09T02:55:47.543Z,60.12
2019-01-09T02:58:14.919Z,60.92
2019-01-09T03:00:42.014Z,61.15
2019-01-09T03:03:08.722Z,60.95
2019-01-09T03:05:35.740Z,60.67
2019-01-09T03:08:02.618Z,59.88
2019-01-09T03:10:29.507Z,59.97
2019-01-09T03:12:57.021Z,60.04
2019-01-09T03:15:23.693Z,59.88
2019-01-09T03:17:50.323Z,59.44
2019-01-09T03:20:18.377Z,59.28
2019-01-09T03:22:45.313Z,59.42
2019-01-09T03:25:12.223Z,59.86
2019-01-09T03:27:38.823Z,59.44
2019-01-09T03:30:05.737Z,59.29
2019-01-09T03:32:32.549Z,58.96
2019-01-09T03:34:59.173Z,59.14
2019-01-09T03:37:25.894Z,59.83
2019-01-09T03:39:53.120Z,60.03
2019-01-09T03:42:20.800Z,60.42
2019-01-09T03:44:47.771Z,60.65
2019-01-09T03:47:14.756Z,60.59
2019-01-09T03:49:42.612Z,60.88
2019-01-09T03:52:09.195Z,60.72
2019-01-09T03:54:35.808Z,60.09
2019-01-09T03:57:03.248Z,60.14
2019-01-09T03:59:30.065Z,60.11
2019-01-09T04:01:57.303Z,60.64
2019-01-09T04:04:24.289Z,60.57
2019-01-09T04:06:51.100Z,60.14
2019-01-09T04:09:20.638Z,59.52
2019-01-09T04:11:47.761Z,59.49
2019-01-09T04:14:14.369Z,60.07
2019-01-09T04:16:42.573Z,60.27
2019-01-09T04:19:09.449Z,60.25
2019-01-09T04:21:36.414Z,59.94
2019-01-09T04:24:03.670Z,59.68
2019-01-09T04:26:30.528Z,59.87
2019-01-09T04:28:57.406Z,59.92
2019-01-09T04:31:24.291Z,59.64
2019-01-09T04:33:52.108Z,59.39
2019-01-09T04:36:19.032Z,59.26
2019-01-09T04:38:46.405Z,59.04
2019-01-09T04:41:14.148Z,59.22
2019-01-09T04:43:42.350Z,59.40
2019-01-09T04:46:09.117Z,59.76
2019-01-09T04:48:37.091Z,59.36
2019-01-09T04:51:04.518Z,59.11
2019-01-09T04:53:31.245Z,58.99
2019-01-09T04:55:59.004Z,58.69
2019-01-09T04:58:26.313Z,58.30
2019-01-09T05:00:54.039Z,58.05
2019-01-09T05:03:21.577Z,58.48
2019-01-09T05:05:50.390Z,58.60
2019-01-09T05:08:19.097Z,58.76
2019-01-09T05:10:46.851Z,59.24
2019-01-09T05:13:13.789Z,59.93
2019-01-09T05:15:42.612Z,60.53
2019-01-09T05:18:11.539Z,61.15
2019-01-09T05:20:39.258Z,61.14
2019-01-09T05:23:06.782Z,60.95
2019-01-09T05:25:34.139Z,60.38
2019-01-09T05:28:01.114Z,60.36
2019-01-09T05:30:31.536Z,60.13
2019-01-09T05:33:02.166Z,59.71
2019-01-09T05:35:28.869Z,59.37
2019-01-09T05:37:55.925Z,59.55
2019-01-09T05:40:24.246Z,59.84
2019-01-09T05:45:38.878Z,59.99
2019-01-09T05:48:07.373Z,60.20
2019-01-09T05:50:35.458Z,60.07
2019-01-09T05:53:16.891Z,60.25
2019-01-09T05:55:45.258Z,60.06
2019-01-09T05:58:15.415Z,58.79
2019-01-09T06:00:47.264Z,59.13
2019-01-09T06:03:16.027Z,59.79
2019-01-09T06:05:43.559Z,59.58
2019-01-09T06:10:59.870Z,59.25
2019-01-09T06:13:27.760Z,58.94
2019-01-09T06:15:55.443Z,59.12
2019-01-09T06:18:22.113Z,59.47
2019-01-09T06:20:49.238Z,59.75
2019-01-09T06:23:20.314Z,60.03
2019-01-09T06:25:49.376Z,59.97
2019-01-09T06:28:17.332Z,59.91
2019-01-09T06:30:44.336Z,59.73
2019-01-09T06:33:11.230Z,59.66
2019-01-09T06:35:38.437Z,59.71
2019-01-09T06:38:05.381Z,60.40
2019-01-09T06:40:32.266Z,60.78
2019-01-09T06:42:59.085Z,60.25
2019-01-09T06:45:25.838Z,59.72
2019-01-09T06:47:59.842Z,59.55
2019-01-09T06:50:26.767Z,59.62
2019-01-09T06:52:53.648Z,60.37
2019-01-09T06:55:22.045Z,59.87
2019-01-09T06:57:49.776Z,60.02
2019-01-09T07:00:18.931Z,60.41
2019-01-09T07:02:47.318Z,59.77
2019-01-09T07:05:15.729Z,59.62
2019-01-09T07:07:42.407Z,59.58
2019-01-09T07:10:10.832Z,59.95
2019-01-09T07:12:39.094Z,60.01
2019-01-09T07:15:11.434Z,60.12
2019-01-09T07:17:34.416Z,60.08
2019-01-09T07:20:01.943Z,59.61
2019-01-09T07:22:29.583Z,59.66
2019-01-09T07:24:56.198Z,60.62
2019-01-09T07:27:23.095Z,61.10
2019-01-09T07:29:50.003Z,60.92
2019-01-09T07:32:18.720Z,60.52
2019-01-09T07:34:45.627Z,60.19
2019-01-09T07:37:13.036Z,59.81
2019-01-09T07:39:39.691Z,59.43
2019-01-09T07:42:06.373Z,59.06
2019-01-09T07:44:33.607Z,59.05
2019-01-09T07:47:02.768Z,59.18
2019-01-09T07:49:30.027Z,59.77
2019-01-09T07:51:56.681Z,60.86
2019-01-09T07:54:23.652Z,61.43
2019-01-09T07:56:50.562Z,60.87
2019-01-09T07:59:18.410Z,60.46
2019-01-09T08:01:45.246Z,60.28
2019-01-09T08:04:12.821Z,59.74
2019-01-09T08:06:40.243Z,59.12
2019-01-09T08:09:09.491Z,58.74
2019-01-09T08:11:36.287Z,58.66
2019-01-09T08:14:04.835Z,58.56
2019-01-09T08:16:31.692Z,58.32
2019-01-09T08:19:00.951Z,58.32
2019-01-09T08:21:32.382Z,58.07
2019-01-09T08:23:59.770Z,57.87
2019-01-09T08:26:27.692Z,57.78
2019-01-09T08:28:55.184Z,58.57
2019-01-09T08:31:22.637Z,59.61
2019-01-09T08:33:50.492Z,59.59
2019-01-09T08:36:18.704Z,59.75
2019-01-09T08:38:45.654Z,59.46
2019-01-09T08:44:04.378Z,59.79
2019-01-09T08:46:28.937Z,59.23
2019-01-09T08:48:56.435Z,59.59
2019-01-09T08:51:24.867Z,59.45
2019-01-09T08:53:52.297Z,59.28
2019-01-09T08:56:18.910Z,59.04
2019-01-09T08:58:52.608Z,59.10
2019-01-09T09:01:21.232Z,59.04
2019-01-09T09:03:48.221Z,58.62
2019-01-09T09:06:16.620Z,57.91
2019-01-09T09:08:44.580Z,58.16
2019-01-09T09:11:11.463Z,58.27
2019-01-09T09:13:38.361Z,58.02
2019-01-09T09:16:08.998Z,57.67
2019-01-09T09:18:37.724Z,57.57
2019-01-09T09:21:05.934Z,56.73
2019-01-09T09:23:39.965Z,57.11
2019-01-09T09:26:08.567Z,56.85
2019-01-09T09:28:35.182Z,56.55
2019-01-09T09:31:01.796Z,56.62
2019-01-09T09:33:28.602Z,57.06
2019-01-09T09:35:56.590Z,56.94
2019-01-09T09:38:23.218Z,56.27
2019-01-09T09:40:49.856Z,56.42
2019-01-09T09:43:18.012Z,56.64
2019-01-09T09:45:46.188Z,55.98
2019-01-09T09:48:12.864Z,55.74
2019-01-09T09:50:39.692Z,56.03
2019-01-09T09:53:06.343Z,55.83
2019-01-09T09:55:35.301Z,55.62
2019-01-09T09:58:05.774Z,55.16
2019-01-09T10:00:30.269Z,54.82
2019-01-09T10:02:57.035Z,54.57
2019-01-09T10:05:24.735Z,54.26
2019-01-09T10:07:51.452Z,54.26
2019-01-09T10:10:18.186Z,54.27
2019-01-09T10:12:44.846Z,54.32
2019-01-09T10:15:13.953Z,53.92
2019-01-09T10:17:40.978Z,53.69
2019-01-09T10:20:07.875Z,53.42
2019-01-09T10:22:34.522Z,53.24
2019-01-09T10:25:01.138Z,52.98
2019-01-09T10:27:27.957Z,52.54
2019-01-09T10:29:55.023Z,52.12
2019-01-09T10:32:21.886Z,52.58
2019-01-09T10:34:48.470Z,52.52
2019-01-09T10:37:15.133Z,52.25
2019-01-09T10:39:41.964Z,52.38
2019-01-09T10:42:08.848Z,51.90
2019-01-09T10:44:35.457Z,51.19
2019-01-09T10:47:02.273Z,50.34
2019-01-09T10:49:28.989Z,50.14
2019-01-09T10:51:55.604Z,48.75
2019-01-09T10:54:22.219Z,48.52
2019-01-09T10:56:48.995Z,48.12
2019-01-09T10:59:15.667Z,49.79
2019-01-09T11:01:42.312Z,49.38
2019-01-09T11:04:09.170Z,48.01
2019-01-09T11:06:36.781Z,47.65
2019-01-09T11:09:03.411Z,48.25
2019-01-09T11:11:30.144Z,47.89
2019-01-09T11:13:56.772Z,47.06
2019-01-09T11:16:26.156Z,47.75
2019-01-09T11:18:52.736Z,48.27
2019-01-09T11:21:19.381Z,47.52
2019-01-09T11:23:46.327Z,46.37
2019-01-09T11:26:15.764Z,46.04
2019-01-09T11:28:42.413Z,46.24
2019-01-09T11:31:09.273Z,47.05
2019-01-09T11:33:35.878Z,46.49
2019-01-09T11:36:04.884Z,43.96
2019-01-09T11:38:31.463Z,44.34
2019-01-09T11:40:58.319Z,44.14
2019-01-09T11:43:24.932Z,43.94
2019-01-09T11:45:51.710Z,41.09
2019-01-09T11:48:18.851Z,42.58
2019-01-09T11:50:45.460Z,43.96
2019-01-09T11:53:12.341Z,42.42
2019-01-09T11:55:38.973Z,42.87
2019-01-09T11:58:05.609Z,42.51
2019-01-09T12:00:32.482Z,40.70
2019-01-09T12:02:59.086Z,40.35
2019-01-09T12:05:25.702Z,40.51
2019-01-09T12:07:52.883Z,39.47
2019-01-09T12:10:19.641Z,41.23
2019-01-09T12:12:46.271Z,40.54
2019-01-09T12:15:13.042Z,39.53
2019-01-09T12:17:39.696Z,39.96
2019-01-09T12:20:06.351Z,40.23
2019-01-09T12:22:32.952Z,40.26
2019-01-09T12:24:59.787Z,38.50
2019-01-09T12:27:27.620Z,39.91
2019-01-09T12:29:54.243Z,37.98
2019-01-09T12:32:20.890Z,39.74
2019-01-09T12:34:49.206Z,39.04
2019-01-09T12:37:16.965Z,38.44
2019-01-09T12:39:43.544Z,38.39
2019-01-09T12:42:10.200Z,38.86
2019-01-09T12:44:36.998Z,39.01
2019-01-09T12:47:06.304Z,38.67
2019-01-09T12:49:33.319Z,40.00
2019-01-09T12:52:00.004Z,39.17
2019-01-09T12:54:26.624Z,40.24
2019-01-09T12:56:55.691Z,40.16
2019-01-09T12:59:22.305Z,40.69
2019-01-09T13:01:49.641Z,40.62
2019-01-09T13:04:16.260Z,40.09
2019-01-09T13:06:46.205Z,40.26
2019-01-09T13:09:21.938Z,40.10
2019-01-09T13:11:41.505Z,39.86
2019-01-09T13:14:08.200Z,40.29
2019-01-09T13:16:34.793Z,40.59
2019-01-09T13:19:01.463Z,40.47
2019-01-09T13:21:28.204Z,40.32
2019-01-09T13:23:54.823Z,40.17
2019-01-09T13:26:21.452Z,40.54
2019-01-09T13:28:49.616Z,40.15
2019-01-09T13:31:16.312Z,40.55
2019-01-09T13:33:42.937Z,38.27
2019-01-09T13:36:09.545Z,38.65
2019-01-09T13:38:36.468Z,39.29
2019-01-09T13:41:03.501Z,39.78
2019-01-09T13:43:30.445Z,39.74
2019-01-09T13:45:57.067Z,40.14
2019-01-09T13:48:23.710Z,39.81
2019-01-09T13:50:50.472Z,40.39
2019-01-09T13:53:18.247Z,40.88
2019-01-09T13:55:44.988Z,40.31
2019-01-09T13:58:16.052Z,39.71
2019-01-09T14:00:42.710Z,39.69
2019-01-09T14:03:09.595Z,39.69
2019-01-09T14:05:36.507Z,39.39
2019-01-09T14:08:05.096Z,40.33
2019-01-09T14:10:31.783Z,40.34
2019-01-09T14:12:58.781Z,40.31
2019-01-09T14:15:25.641Z,40.33
2019-01-09T14:17:54.547Z,39.34
2019-01-09T14:20:21.129Z,39.61
2019-01-09T14:22:47.838Z,39.83
2019-01-09T14:25:14.785Z,39.65
2019-01-09T14:27:43.784Z,40.06
2019-01-09T14:30:10.591Z,40.40
2019-01-09T14:32:37.221Z,40.71
2019-01-09T14:35:03.824Z,40.03
2019-01-09T14:37:33.280Z,40.69
2019-01-09T14:39:59.995Z,39.99
2019-01-09T14:42:26.917Z,40.15
2019-01-09T14:44:53.519Z,40.67
2019-01-09T14:47:20.432Z,40.66
2019-01-09T14:49:46.982Z,41.33
2019-01-09T14:52:13.579Z,40.77
2019-01-09T14:54:40.224Z,39.42
2019-01-09T14:57:07.031Z,40.77
2019-01-09T14:59:34.714Z,39.97
2019-01-09T15:02:01.388Z,40.70
2019-01-09T15:04:28.181Z,40.47
2019-01-09T15:06:54.825Z,40.52
2019-01-09T15:09:21.744Z,40.05
2019-01-09T15:11:48.328Z,40.07
2019-01-09T15:14:15.230Z,40.26
2019-01-09T15:16:41.926Z,40.84
2019-01-09T15:19:08.522Z,40.84
2019-01-09T15:21:35.306Z,41.10
2019-01-09T15:24:08.327Z,41.00
2019-01-09T15:26:30.652Z,40.47
2019-01-09T15:28:57.388Z,40.67
2019-01-09T15:31:23.983Z,40.16
2019-01-09T15:33:50.802Z,40.97
2019-01-09T15:36:17.513Z,40.42
2019-01-09T15:38:51.236Z,40.32
2019-01-09T15:41:15.287Z,40.37
2019-01-09T15:43:41.923Z,40.59
2019-01-09T15:46:08.571Z,40.31
2019-01-09T15:48:35.169Z,40.70
2019-01-09T15:51:01.758Z,40.73
2019-01-09T15:53:28.626Z,40.63
2019-01-09T15:55:55.208Z,41.25
2019-01-09T15:58:23.932Z,40.98
2019-01-09T16:00:51.199Z,41.01
2019-01-09T16:03:17.804Z,41.19
2019-01-09T16:05:45.785Z,41.29
2019-01-09T16:08:12.780Z,40.90
2019-01-09T16:10:39.374Z,41.45
2019-01-09T16:13:05.976Z,41.12
2019-01-09T16:15:32.899Z,41.28
2019-01-09T16:17:59.769Z,41.08
2019-01-09T16:20:26.392Z,41.31
2019-01-09T16:22:53.022Z,40.60
2019-01-09T16:25:21.244Z,40.67
2019-01-09T16:27:48.060Z,40.00
2019-01-09T16:30:15.083Z,40.08
2019-01-09T16:32:41.994Z,40.56
2019-01-09T16:35:08.610Z,40.99
2019-01-09T16:37:35.310Z,40.95
2019-01-09T16:40:02.124Z,40.82
2019-01-09T16:42:28.755Z,40.81
2019-01-09T16:44:55.463Z,40.90
2019-01-09T16:47:22.163Z,41.01
2019-01-09T16:49:48.787Z,40.82
2019-01-09T16:52:15.384Z,40.94
2019-01-09T16:54:42.249Z,41.32
2019-01-09T16:57:08.862Z,41.55
2019-01-09T16:59:36.164Z,41.42
2019-01-09T17:02:02.782Z,41.01
2019-01-09T17:04:29.715Z,41.36
2019-01-09T17:06:56.442Z,41.31
2019-01-09T17:09:26.125Z,41.40
2019-01-09T17:11:52.715Z,42.11
2019-01-09T17:14:19.468Z,42.24
2019-01-09T17:16:46.351Z,41.88
2019-01-09T17:19:14.766Z,42.08
2019-01-09T17:21:41.707Z,42.34
2019-01-09T17:24:08.594Z,42.42
2019-01-09T17:26:36.249Z,42.21
2019-01-09T17:29:04.475Z,42.38
2019-01-09T17:31:31.703Z,42.48
2019-01-09T17:33:58.307Z,42.62
2019-01-09T17:36:24.928Z,42.86
2019-01-09T17:38:52.191Z,43.38
2019-01-09T17:41:18.803Z,42.96
2019-01-09T17:43:45.693Z,43.18
2019-01-09T17:46:12.344Z,43.99
2019-01-09T17:48:38.952Z,44.24
2019-01-09T17:51:05.898Z,44.37
2019-01-09T17:53:32.959Z,44.15
2019-01-09T17:55:59.878Z,44.49
2019-01-09T17:58:26.561Z,44.78
2019-01-09T18:00:53.428Z,44.57
2019-01-09T18:03:20.032Z,44.70
2019-01-09T18:05:46.963Z,44.95
2019-01-09T18:08:13.602Z,44.90
2019-01-09T18:10:49.750Z,45.15
2019-01-09T18:13:09.280Z,44.98
2019-01-09T18:15:36.077Z,44.93
2019-01-09T18:18:02.773Z,45.21
2019-01-09T18:20:38.517Z,45.71
2019-01-09T18:23:05.193Z,45.59
2019-01-09T18:25:32.142Z,45.79
2019-01-09T18:27:58.750Z,45.81
2019-01-09T18:30:27.246Z,46.15
2019-01-09T18:32:54.405Z,46.25
2019-01-09T18:35:23.948Z,46.64
2019-01-09T18:37:52.077Z,46.81
2019-01-09T18:40:22.608Z,46.91
2019-01-09T18:42:56.638Z,46.86
2019-01-09T18:45:24.289Z,46.85
2019-01-09T18:47:50.850Z,46.71
2019-01-09T18:50:18.916Z,46.43
2019-01-09T18:52:45.690Z,45.86
2019-01-09T18:55:12.296Z,46.62
2019-01-09T18:57:38.926Z,47.16
2019-01-09T19:00:08.476Z,47.77
2019-01-09T19:02:35.068Z,47.70
2019-01-09T19:05:01.859Z,47.52
2019-01-09T19:07:29.836Z,47.50
2019-01-09T19:10:05.510Z,47.65
2019-01-09T19:12:32.217Z,47.81
2019-01-09T19:14:58.985Z,48.03
2019-01-09T19:17:25.842Z,48.06
2019-01-09T19:19:53.362Z,47.99
2019-01-09T19:22:20.001Z,47.78
2019-01-09T19:24:46.693Z,47.64
2019-01-09T19:27:13.328Z,47.71
2019-01-09T19:29:40.025Z,47.82
2019-01-09T19:32:06.627Z,47.94
2019-01-09T19:34:33.402Z,48.19
2019-01-09T19:37:00.951Z,48.09
2019-01-09T19:39:27.619Z,48.13
2019-01-09T19:41:54.524Z,48.15
2019-01-09T19:44:21.145Z,47.81
2019-01-09T19:46:47.692Z,48.72
2019-01-09T19:49:14.358Z,49.05
2019-01-09T19:51:41.224Z,49.08
2019-01-09T19:54:07.848Z,48.83
2019-01-09T19:56:34.818Z,48.55
2019-01-09T19:59:01.692Z,48.85
2019-01-09T20:01:31.205Z,49.12
2019-01-09T20:03:57.820Z,49.03
2019-01-09T20:06:24.692Z,48.75
2019-01-09T20:08:51.293Z,48.87
2019-01-09T20:11:25.925Z,48.61
2019-01-09T20:13:46.266Z,49.19
2019-01-09T20:16:12.931Z,49.91
2019-01-09T20:18:39.555Z,50.05
2019-01-09T20:21:07.023Z,50.21
2019-01-09T20:23:33.618Z,50.13
2019-01-09T20:26:01.361Z,49.90
2019-01-09T20:28:28.139Z,49.05
2019-01-09T20:30:56.629Z,49.18
2019-01-09T20:33:23.262Z,49.39
2019-01-09T20:35:50.059Z,49.28
2019-01-09T20:38:16.692Z,48.89
2019-01-09T20:40:52.698Z,47.96
2019-01-09T20:43:17.445Z,48.14
2019-01-09T20:45:44.185Z,48.17
2019-01-09T20:48:10.802Z,48.20
2019-01-09T20:50:37.619Z,47.96
2019-01-09T20:53:05.700Z,48.24
2019-01-09T20:55:32.373Z,48.45
2019-01-09T20:57:59.451Z,48.34
2019-01-09T21:00:26.270Z,48.20
2019-01-09T21:02:53.285Z,48.46
2019-01-09T21:05:19.841Z,48.63
2019-01-09T21:07:46.523Z,49.10
2019-01-09T21:10:13.413Z,49.34
2019-01-09T21:12:40.111Z,48.83
2019-01-09T21:15:06.697Z,49.04
2019-01-09T21:17:33.498Z,48.88
2019-01-09T21:20:01.841Z,48.82
2019-01-09T21:22:28.525Z,48.62
2019-01-09T21:24:55.461Z,48.46
2019-01-09T21:27:22.038Z,48.17
2019-01-09T21:29:48.695Z,48.43
2019-01-09T21:32:16.540Z,48.66
2019-01-09T21:34:44.820Z,49.05
2019-01-09T21:37:11.734Z,49.36
2019-01-09T21:39:38.650Z,49.45
2019-01-09T21:42:07.379Z,49.52
2019-01-09T21:44:34.907Z,49.26
2019-01-09T21:47:02.264Z,49.15
2019-01-09T21:49:28.859Z,48.82
2019-01-09T21:52:02.415Z,48.86
2019-01-09T21:54:26.103Z,48.71
2019-01-09T21:56:52.807Z,48.89
2019-01-09T21:59:19.459Z,49.35
2019-01-09T22:01:46.088Z,49.25
2019-01-09T22:04:12.893Z,49.71
2019-01-09T22:06:40.076Z,49.72
2019-01-09T22:09:07.753Z,49.45
2019-01-09T22:11:35.616Z,49.66
2019-01-09T22:14:02.447Z,49.43
2019-01-09T22:16:29.044Z,49.05
2019-01-09T22:18:55.918Z,49.35
2019-01-09T22:21:24.563Z,49.27
2019-01-09T22:23:51.198Z,49.53
2019-01-09T22:26:18.171Z,49.13
2019-01-09T22:28:46.065Z,49.50
2019-01-09T22:31:13.859Z,49.58
2019-01-09T22:33:40.629Z,49.80
2019-01-09T22:36:07.189Z,49.89
2019-01-09T22:38:33.917Z,49.77
2019-01-09T22:41:01.775Z,49.85
2019-01-09T22:43:29.545Z,50.36
2019-01-09T22:45:56.312Z,50.41
2019-01-09T22:48:23.176Z,50.14
2019-01-09T22:50:49.819Z,50.33
2019-01-09T22:53:16.531Z,50.44
2019-01-09T22:55:43.426Z,50.48
2019-01-09T22:58:11.316Z,50.48
2019-01-09T23:00:37.951Z,50.28
2019-01-09T23:03:05.115Z,50.37
2019-01-09T23:05:32.959Z,50.38
2019-01-09T23:07:59.655Z,50.43
2019-01-09T23:10:26.630Z,50.50
2019-01-09T23:12:54.038Z,50.69
2019-01-09T23:15:20.892Z,50.64
2019-01-09T23:17:47.660Z,50.84
2019-01-09T23:20:14.277Z,51.78
2019-01-09T23:22:43.540Z,52.73
2019-01-09T23:25:10.116Z,52.56
2019-01-09T23:27:37.715Z,52.10
2019-01-09T23:30:04.368Z,52.11
2019-01-09T23:32:49.599Z,52.49
2019-01-09T23:35:16.208Z,52.93
2019-01-09T23:37:42.806Z,52.75
2019-01-09T23:40:09.456Z,52.26
2019-01-09T23:42:38.163Z,52.07
2019-01-09T23:45:05.036Z,51.96
2019-01-09T23:47:35.259Z,51.80
2019-01-09T23:50:03.321Z,51.62
2019-01-09T23:52:34.568Z,51.71
2019-01-09T23:54:58.310Z,51.88
2019-01-09T23:57:24.943Z,51.72
2019-01-09T23:59:51.570Z,51.87
